Atlantic Companion — SKPE — position and weather

sailwx.info

Track history (hours):
 
Tides and Currents Weather Stations Pressure Air Temp Water Temp Dewpoint Dewpoint Depression Visibility Wind Speed Wind Dir Waves Ship Positions

Atlantic Companion

Last reported at 2015-Mar-31 08:13 UTC. Time now 2015-Mar-31 11:19 UTC.
Position N 51°11' W 010°19'.

Length 292 m; beam 32.3 m; draft 11.6 m.

Type: Cargo ship. MMSI: 265142000.

Date/timePositionNaut miles runAvg speedWind from/ knotsBaromVisibWave heightAir tempDewpointWater temp
2015-Mar-31 08:13N 51°11' W 010°19'710.4
2015-Mar-31 07:33N 51°13' W 010°08'1111.0
2015-Mar-31 06:33N 51°17' W 009°52'1111.4
2015-Mar-31 05:34N 51°20' W 009°34'1312.9
2015-Mar-31 04:34N 51°24' W 009°14'1313.3
2015-Mar-31 03:34N 51°27' W 008°54'1313.4
2015-Mar-31 02:34N 51°31' W 008°33'1413.5
2015-Mar-31 01:33N 51°36' W 008°13'1413.8
2015-Mar-31 00:33N 51°41' W 007°52'1413.7
2015-Mar-30 23:33N 51°45' W 007°31'1413.8
2015-Mar-30 22:33N 51°50' W 007°11'1513.7
2015-Mar-30 21:30N 51°55' W 006°48'1313.6
2015-Mar-30 20:33N 52°01' W 006°30'1414.0
2015-Mar-30 19:31N 52°09' W 006°10'1313.7
2015-Mar-30 18:33N 52°20' W 005°58'9012.8
2015-Mar-30 11:30N 53°25' W 004°14'1515.9
2015-Mar-30 10:33N 53°30' W 003°51'1616.0
2015-Mar-30 09:33N 53°33' W 003°24'1313.3
2015-Mar-30 08:33N 53°28' W 003°03'2 1.5
2015-Mar-30 07:34N 53°27' W 003°01'1 0.6
2015-Mar-30 06:33N 53°28' W 003°02'0 0.4
2015-Mar-30 05:32N 53°28' W 003°01'0 0.0
2015-Mar-30 04:32N 53°28' W 003°01'0 0.0
2015-Mar-30 03:29N 53°28' W 003°01'0 0.0
2015-Mar-30 02:32N 53°28' W 003°01'0 0.0
2015-Mar-30 01:32N 53°28' W 003°01'0 0.0
2015-Mar-30 00:32N 53°28' W 003°01'0 0.0
2015-Mar-29 23:32N 53°28' W 003°01'0 0.0
2015-Mar-29 22:32N 53°28' W 003°01'0 0.0
2015-Mar-29 21:29N 53°28' W 003°01'0 0.0
2015-Mar-29 20:32N 53°28' W 003°01'0 0.0
2015-Mar-29 19:29N 53°28' W 003°01'0 0.0
2015-Mar-29 18:29N 53°28' W 003°01'0 0.0
2015-Mar-29 17:32N 53°28' W 003°01'0 0.0
2015-Mar-29 16:32N 53°28' W 003°01'0 0.0
2015-Mar-29 15:32N 53°28' W 003°01'0 0.0
2015-Mar-29 14:32N 53°28' W 003°01'0 0.0
2015-Mar-29 13:29N 53°28' W 003°01'0 0.0
2015-Mar-29 12:32N 53°28' W 003°01'0 0.0
2015-Mar-29 11:32N 53°28' W 003°01'0 0.0
2015-Mar-29 10:32N 53°28' W 003°01'0 0.0
2015-Mar-29 09:32N 53°28' W 003°01'0 0.0
2015-Mar-29 08:32N 53°28' W 003°01'0 0.0
2015-Mar-29 07:32N 53°28' W 003°01'0 0.0
2015-Mar-29 06:32N 53°28' W 003°01'0 0.0
2015-Mar-29 05:32N 53°28' W 003°01'0 0.0
2015-Mar-29 04:32N 53°28' W 003°01'0 0.0
2015-Mar-29 03:32N 53°28' W 003°01'0 0.0
2015-Mar-29 02:26N 53°28' W 003°01'0 0.0
2015-Mar-29 01:26N 53°28' W 003°01'0 0.0
2015-Mar-29 00:32N 53°28' W 003°01'0 0.0
2015-Mar-28 22:29N 53°28' W 003°01'0 0.0
2015-Mar-28 21:29N 53°28' W 003°01'0 0.0
2015-Mar-28 20:29N 53°28' W 003°01'0 0.0
2015-Mar-28 19:29N 53°28' W 003°01'0 0.0
2015-Mar-28 18:29N 53°28' W 003°01'1 0.7
2015-Mar-28 17:33N 53°27' W 003°01'0 0.3
2015-Mar-28 16:33N 53°27' W 003°01'8 8.1
2015-Mar-28 15:32N 53°31' W 003°13'1212.0
2015-Mar-28 14:30N 53°31' W 003°34'211 7.8
2015-Mar-27 11:23N 49°60' W 003°20'1213.9
2015-Mar-27 10:33N 50°01' W 003°02'1514.5
2015-Mar-27 09:32N 50°04' W 002°39'3216.1
2015-Mar-27 07:32N 50°10' W 001°50'1817.0
2015-Mar-27 06:29N 50°15' W 001°23'1716.6
2015-Mar-27 05:29N 50°18' W 000°58'4414.9
2015-Mar-27 02:33N 50°30' E 000°08'1313.3
2015-Mar-27 01:33N 50°33' E 000°29'1313.3
2015-Mar-27 00:33N 50°41' E 000°46'1514.7
2015-Mar-26 23:33N 50°49' E 001°05'1616.2
2015-Mar-26 22:34N 50°59' E 001°25'1615.8
2015-Mar-26 21:33N 51°10' E 001°42'1514.6
2015-Mar-26 20:33N 51°22' E 001°56'1212.2
2015-Mar-26 19:33N 51°21' E 002°16'1313.2
2015-Mar-26 18:33N 51°23' E 002°37'1212.4
2015-Mar-26 17:33N 51°23' E 002°56'1413.7
2015-Mar-26 16:34N 51°24' E 003°18'1111.2
2015-Mar-26 15:33N 51°26' E 003°36'1111.0
2015-Mar-26 14:33N 51°21' E 003°52'9 9.5
2015-Mar-26 13:33N 51°22' E 004°07'7 6.5
2015-Mar-26 12:33N 51°20' E 004°17'0 0.0
2015-Mar-26 11:33N 51°20' E 004°17'0 0.0
2015-Mar-26 10:33N 51°20' E 004°17'0 0.0
2015-Mar-26 09:33N 51°20' E 004°17'0 0.0
2015-Mar-26 08:33N 51°20' E 004°17'0 0.0
2015-Mar-26 07:33N 51°20' E 004°17'0 0.0
2015-Mar-26 06:33N 51°20' E 004°17'0 0.0
2015-Mar-26 05:33N 51°20' E 004°17'0 0.0
2015-Mar-26 04:33N 51°20' E 004°17'0 0.0
2015-Mar-26 03:33N 51°20' E 004°17'0 0.0
2015-Mar-26 02:33N 51°20' E 004°17'0 0.0
2015-Mar-26 01:33N 51°20' E 004°17'0 0.0
2015-Mar-26 00:33N 51°20' E 004°17'0 0.0
2015-Mar-25 23:33N 51°20' E 004°17'0 0.0
2015-Mar-25 22:33N 51°20' E 004°17'0 0.0
2015-Mar-25 21:33N 51°20' E 004°17'0 0.0
2015-Mar-25 20:33N 51°20' E 004°17'4 3.8
2015-Mar-25 19:33N 51°23' E 004°13'10 9.7
2015-Mar-25 18:34N 51°24' E 003°57'1111.3
2015-Mar-25 17:34N 51°26' E 003°40'1414.2
2015-Mar-25 16:33N 51°24' E 003°17'1717.3
2015-Mar-25 15:33N 51°22' E 002°50'1616.4
2015-Mar-25 14:34N 51°20' E 002°24'1817.9
2015-Mar-25 13:34N 51°11' E 001°59'1616.4
2015-Mar-25 12:34N 51°01' E 001°38'1615.6
2015-Mar-25 11:33N 50°48' E 001°25'1915.8
2015-Mar-25 10:23N 50°34' E 001°05'1416.5
2015-Mar-25 09:33N 50°28' E 000°46'1716.7
2015-Mar-25 08:34N 50°24' E 000°21'239 8.1
2015-Mar-24 03:06N 53°33' W 003°36'1017.9
2015-Mar-24 02:33N 53°32' W 003°19'1212.1
2015-Mar-24 01:33N 53°27' W 003°01'1 0.7
2015-Mar-24 00:33N 53°27' W 003°01'0 0.4
2015-Mar-23 23:33N 53°28' W 003°01'0 0.0
2015-Mar-23 22:33N 53°28' W 003°01'0 0.0
2015-Mar-23 21:33N 53°28' W 003°01'0 0.0
2015-Mar-23 20:33N 53°28' W 003°01'0 0.0
2015-Mar-23 19:33N 53°28' W 003°01'0 0.0
2015-Mar-23 18:27N 53°28' W 003°01'0 0.0
2015-Mar-23 17:27N 53°28' W 003°01'0 0.0
2015-Mar-23 16:33N 53°28' W 003°01'0 0.0
2015-Mar-23 15:33N 53°28' W 003°01'0 0.0
2015-Mar-23 14:33N 53°28' W 003°01'0 0.0
2015-Mar-23 13:27N 53°28' W 003°01'0 0.0
2015-Mar-23 12:33N 53°28' W 003°01'0 0.0
2015-Mar-23 11:33N 53°28' W 003°01'1 0.7
2015-Mar-23 10:33N 53°27' W 003°01'7 6.7
2015-Mar-23 09:33N 53°32' W 003°09'1818.0
2015-Mar-23 08:33N 53°30' W 003°39'10112.6
2015-Mar-23 00:33N 52°24' W 005°46'1717.4
2015-Mar-22 23:33N 52°09' W 006°01'1918.2
2015-Mar-22 22:30N 51°59' W 006°27'1818.8
2015-Mar-22 21:33N 51°53' W 006°54'1818.4
2015-Mar-22 20:33N 51°47' W 007°22'1818.4
2015-Mar-22 19:33N 51°40' W 007°50'1818.5
2015-Mar-22 18:33N 51°34' W 008°18'1818.4
2015-Mar-22 17:33N 51°28' W 008°46'1918.6
2015-Mar-22 16:33N 51°21' W 009°14'1818.3
2015-Mar-22 15:33N 51°16' W 009°42'1817.8
2015-Mar-22 14:33N 51°16' W 010°10'4618.1
2015-Mar-22 12:00N 51°12' W 011°24'21718.0 220 / 61025.9 5.4 0.5 9.6 9.8
2015-Mar-22 00:00N 50°48' W 017°06'   140 / 101028.1 8.9 9.8
Track history (hours):
 
Tides and Currents Weather Stations Pressure Air Temp Water Temp Dewpoint Dewpoint Depression Visibility Wind Speed Wind Dir Waves Ship Positions

Atlantic Companion

Last reported at 2015-Mar-31 08:13 UTC. Time now 2015-Mar-31 11:19 UTC.
Position N 51°11' W 010°19'.

Length 292 m; beam 32.3 m; draft 11.6 m.

Type: Cargo ship. MMSI: 265142000.

Date/timePositionNaut miles runAvg speedWind from/ knotsBaromVisibWave heightAir tempDewpointWater temp
2015-Mar-31 08:13N 51°11' W 010°19'710.4
2015-Mar-31 07:33N 51°13' W 010°08'1111.0
2015-Mar-31 06:33N 51°17' W 009°52'1111.4
2015-Mar-31 05:34N 51°20' W 009°34'1312.9
2015-Mar-31 04:34N 51°24' W 009°14'1313.3
2015-Mar-31 03:34N 51°27' W 008°54'1313.4
2015-Mar-31 02:34N 51°31' W 008°33'1413.5
2015-Mar-31 01:33N 51°36' W 008°13'1413.8
2015-Mar-31 00:33N 51°41' W 007°52'1413.7
2015-Mar-30 23:33N 51°45' W 007°31'1413.8
2015-Mar-30 22:33N 51°50' W 007°11'1513.7
2015-Mar-30 21:30N 51°55' W 006°48'1313.6
2015-Mar-30 20:33N 52°01' W 006°30'1414.0
2015-Mar-30 19:31N 52°09' W 006°10'1313.7
2015-Mar-30 18:33N 52°20' W 005°58'9012.8
2015-Mar-30 11:30N 53°25' W 004°14'1515.9
2015-Mar-30 10:33N 53°30' W 003°51'1616.0
2015-Mar-30 09:33N 53°33' W 003°24'1313.3
2015-Mar-30 08:33N 53°28' W 003°03'2 1.5
2015-Mar-30 07:34N 53°27' W 003°01'1 0.6
2015-Mar-30 06:33N 53°28' W 003°02'0 0.4
2015-Mar-30 05:32N 53°28' W 003°01'0 0.0
2015-Mar-30 04:32N 53°28' W 003°01'0 0.0
2015-Mar-30 03:29N 53°28' W 003°01'0 0.0
2015-Mar-30 02:32N 53°28' W 003°01'0 0.0
2015-Mar-30 01:32N 53°28' W 003°01'0 0.0
2015-Mar-30 00:32N 53°28' W 003°01'0 0.0
2015-Mar-29 23:32N 53°28' W 003°01'0 0.0
2015-Mar-29 22:32N 53°28' W 003°01'0 0.0
2015-Mar-29 21:29N 53°28' W 003°01'0 0.0
2015-Mar-29 20:32N 53°28' W 003°01'0 0.0
2015-Mar-29 19:29N 53°28' W 003°01'0 0.0
2015-Mar-29 18:29N 53°28' W 003°01'0 0.0
2015-Mar-29 17:32N 53°28' W 003°01'0 0.0
2015-Mar-29 16:32N 53°28' W 003°01'0 0.0
2015-Mar-29 15:32N 53°28' W 003°01'0 0.0
2015-Mar-29 14:32N 53°28' W 003°01'0 0.0
2015-Mar-29 13:29N 53°28' W 003°01'0 0.0
2015-Mar-29 12:32N 53°28' W 003°01'0 0.0
2015-Mar-29 11:32N 53°28' W 003°01'0 0.0
2015-Mar-29 10:32N 53°28' W 003°01'0 0.0
2015-Mar-29 09:32N 53°28' W 003°01'0 0.0
2015-Mar-29 08:32N 53°28' W 003°01'0 0.0
2015-Mar-29 07:32N 53°28' W 003°01'0 0.0
2015-Mar-29 06:32N 53°28' W 003°01'0 0.0
2015-Mar-29 05:32N 53°28' W 003°01'0 0.0
2015-Mar-29 04:32N 53°28' W 003°01'0 0.0
2015-Mar-29 03:32N 53°28' W 003°01'0 0.0
2015-Mar-29 02:26N 53°28' W 003°01'0 0.0
2015-Mar-29 01:26N 53°28' W 003°01'0 0.0
2015-Mar-29 00:32N 53°28' W 003°01'0 0.0
2015-Mar-28 22:29N 53°28' W 003°01'0 0.0
2015-Mar-28 21:29N 53°28' W 003°01'0 0.0
2015-Mar-28 20:29N 53°28' W 003°01'0 0.0
2015-Mar-28 19:29N 53°28' W 003°01'0 0.0
2015-Mar-28 18:29N 53°28' W 003°01'1 0.7
2015-Mar-28 17:33N 53°27' W 003°01'0 0.3
2015-Mar-28 16:33N 53°27' W 003°01'8 8.1
2015-Mar-28 15:32N 53°31' W 003°13'1212.0
2015-Mar-28 14:30N 53°31' W 003°34'211 7.8
2015-Mar-27 11:23N 49°60' W 003°20'1213.9
2015-Mar-27 10:33N 50°01' W 003°02'1514.5
2015-Mar-27 09:32N 50°04' W 002°39'3216.1
2015-Mar-27 07:32N 50°10' W 001°50'1817.0
2015-Mar-27 06:29N 50°15' W 001°23'1716.6
2015-Mar-27 05:29N 50°18' W 000°58'4414.9
2015-Mar-27 02:33N 50°30' E 000°08'1313.3
2015-Mar-27 01:33N 50°33' E 000°29'1313.3
2015-Mar-27 00:33N 50°41' E 000°46'1514.7
2015-Mar-26 23:33N 50°49' E 001°05'1616.2
2015-Mar-26 22:34N 50°59' E 001°25'1615.8
2015-Mar-26 21:33N 51°10' E 001°42'1514.6
2015-Mar-26 20:33N 51°22' E 001°56'1212.2
2015-Mar-26 19:33N 51°21' E 002°16'1313.2
2015-Mar-26 18:33N 51°23' E 002°37'1212.4
2015-Mar-26 17:33N 51°23' E 002°56'1413.7
2015-Mar-26 16:34N 51°24' E 003°18'1111.2
2015-Mar-26 15:33N 51°26' E 003°36'1111.0
2015-Mar-26 14:33N 51°21' E 003°52'9 9.5
2015-Mar-26 13:33N 51°22' E 004°07'7 6.5
2015-Mar-26 12:33N 51°20' E 004°17'0 0.0
2015-Mar-26 11:33N 51°20' E 004°17'0 0.0
2015-Mar-26 10:33N 51°20' E 004°17'0 0.0
2015-Mar-26 09:33N 51°20' E 004°17'0 0.0
2015-Mar-26 08:33N 51°20' E 004°17'0 0.0
2015-Mar-26 07:33N 51°20' E 004°17'0 0.0
2015-Mar-26 06:33N 51°20' E 004°17'0 0.0
2015-Mar-26 05:33N 51°20' E 004°17'0 0.0
2015-Mar-26 04:33N 51°20' E 004°17'0 0.0
2015-Mar-26 03:33N 51°20' E 004°17'0 0.0
2015-Mar-26 02:33N 51°20' E 004°17'0 0.0
2015-Mar-26 01:33N 51°20' E 004°17'0 0.0
2015-Mar-26 00:33N 51°20' E 004°17'0 0.0
2015-Mar-25 23:33N 51°20' E 004°17'0 0.0
2015-Mar-25 22:33N 51°20' E 004°17'0 0.0
2015-Mar-25 21:33N 51°20' E 004°17'0 0.0
2015-Mar-25 20:33N 51°20' E 004°17'4 3.8
2015-Mar-25 19:33N 51°23' E 004°13'10 9.7
2015-Mar-25 18:34N 51°24' E 003°57'1111.3
2015-Mar-25 17:34N 51°26' E 003°40'1414.2
2015-Mar-25 16:33N 51°24' E 003°17'1717.3
2015-Mar-25 15:33N 51°22' E 002°50'1616.4
2015-Mar-25 14:34N 51°20' E 002°24'1817.9
2015-Mar-25 13:34N 51°11' E 001°59'1616.4
2015-Mar-25 12:34N 51°01' E 001°38'1615.6
2015-Mar-25 11:33N 50°48' E 001°25'1915.8
2015-Mar-25 10:23N 50°34' E 001°05'1416.5
2015-Mar-25 09:33N 50°28' E 000°46'1716.7
2015-Mar-25 08:34N 50°24' E 000°21'239 8.1
2015-Mar-24 03:06N 53°33' W 003°36'1017.9
2015-Mar-24 02:33N 53°32' W 003°19'1212.1
2015-Mar-24 01:33N 53°27' W 003°01'1 0.7
2015-Mar-24 00:33N 53°27' W 003°01'0 0.4
2015-Mar-23 23:33N 53°28' W 003°01'0 0.0
2015-Mar-23 22:33N 53°28' W 003°01'0 0.0
2015-Mar-23 21:33N 53°28' W 003°01'0 0.0
2015-Mar-23 20:33N 53°28' W 003°01'0 0.0
2015-Mar-23 19:33N 53°28' W 003°01'0 0.0
2015-Mar-23 18:27N 53°28' W 003°01'0 0.0
2015-Mar-23 17:27N 53°28' W 003°01'0 0.0
2015-Mar-23 16:33N 53°28' W 003°01'0 0.0
2015-Mar-23 15:33N 53°28' W 003°01'0 0.0
2015-Mar-23 14:33N 53°28' W 003°01'0 0.0
2015-Mar-23 13:27N 53°28' W 003°01'0 0.0
2015-Mar-23 12:33N 53°28' W 003°01'0 0.0
2015-Mar-23 11:33N 53°28' W 003°01'1 0.7
2015-Mar-23 10:33N 53°27' W 003°01'7 6.7
2015-Mar-23 09:33N 53°32' W 003°09'1818.0
2015-Mar-23 08:33N 53°30' W 003°39'10112.6
2015-Mar-23 00:33N 52°24' W 005°46'1717.4
2015-Mar-22 23:33N 52°09' W 006°01'1918.2
2015-Mar-22 22:30N 51°59' W 006°27'1818.8
2015-Mar-22 21:33N 51°53' W 006°54'1818.4
2015-Mar-22 20:33N 51°47' W 007°22'1818.4
2015-Mar-22 19:33N 51°40' W 007°50'1818.5
2015-Mar-22 18:33N 51°34' W 008°18'1818.4
2015-Mar-22 17:33N 51°28' W 008°46'1918.6
2015-Mar-22 16:33N 51°21' W 009°14'1818.3
2015-Mar-22 15:33N 51°16' W 009°42'1817.8
2015-Mar-22 14:33N 51°16' W 010°10'4618.1
2015-Mar-22 12:00N 51°12' W 011°24'21718.0 220 / 61025.9 5.4 0.5 9.6 9.8
2015-Mar-22 00:00N 50°48' W 017°06'   140 / 101028.1 8.9 9.8

Dump ship's entire track history